createdAt,value
2023-05-10T00:01:06.623Z,9.95
2023-05-10T00:03:33.117Z,8.90
2023-05-10T00:05:59.637Z,8.85
2023-05-10T00:08:26.284Z,9.13
2023-05-10T00:10:53.895Z,9.87
2023-05-10T00:13:20.476Z,9.88
2023-05-10T00:15:46.960Z,8.90
2023-05-10T00:18:13.464Z,8.77
2023-05-10T00:20:39.852Z,9.52
2023-05-10T00:23:06.281Z,7.40
2023-05-10T00:25:32.709Z,7.63
2023-05-10T00:27:59.444Z,7.25
2023-05-10T00:30:25.873Z,7.65
2023-05-10T00:32:52.772Z,7.93
2023-05-10T00:35:19.311Z,7.60
2023-05-10T00:37:46.091Z,8.40
2023-05-10T00:40:12.746Z,8.52
2023-05-10T00:42:39.122Z,9.40
2023-05-10T00:45:06.270Z,10.98
2023-05-10T00:47:33.570Z,10.57
2023-05-10T00:50:01.919Z,11.63
2023-05-10T00:52:29.975Z,11.93
2023-05-10T00:54:57.594Z,13.18
2023-05-10T00:57:24.352Z,12.07
2023-05-10T00:59:51.641Z,12.53
2023-05-10T01:02:18.177Z,15.32
2023-05-10T01:04:44.959Z,16.58
2023-05-10T01:07:11.527Z,17.85
2023-05-10T01:09:38.164Z,16.50
2023-05-10T01:12:07.751Z,17.73
2023-05-10T01:14:35.306Z,16.20
2023-05-10T01:17:02.417Z,16.75
2023-05-10T01:19:31.540Z,16.98
2023-05-10T01:22:16.686Z,17.52
2023-05-10T01:25:04.262Z,16.73
2023-05-10T01:27:39.754Z,17.10
2023-05-10T01:30:25.204Z,16.85
2023-05-10T01:33:10.380Z,16.65
2023-05-10T01:35:56.208Z,17.40
2023-05-10T01:38:51.570Z,16.60
2023-05-10T01:41:29.060Z,17.27
2023-05-10T01:44:10.285Z,16.95
2023-05-10T01:46:41.052Z,16.90
2023-05-10T01:49:12.704Z,17.10
2023-05-10T01:51:45.553Z,15.77
2023-05-10T01:54:14.310Z,17.00
2023-05-10T01:56:43.025Z,17.85
2023-05-10T01:59:16.184Z,17.08
2023-05-10T02:01:44.139Z,18.67
2023-05-10T02:04:12.630Z,17.30
2023-05-10T02:06:41.842Z,15.38
2023-05-10T02:09:10.000Z,15.93
2023-05-10T02:11:38.987Z,17.00
2023-05-10T02:14:08.565Z,16.08
2023-05-10T02:16:37.113Z,17.40
2023-05-10T02:19:04.550Z,16.83
2023-05-10T02:21:32.254Z,15.60
2023-05-10T02:24:00.499Z,17.40
2023-05-10T02:26:27.717Z,16.92
2023-05-10T02:28:55.824Z,16.07
2023-05-10T02:31:23.310Z,16.38
2023-05-10T02:33:50.728Z,17.75
2023-05-10T02:36:18.010Z,17.02
2023-05-10T02:38:46.542Z,19.08
2023-05-10T02:41:14.211Z,17.83
2023-05-10T02:43:41.876Z,17.15
2023-05-10T02:46:08.441Z,17.98
2023-05-10T02:48:35.011Z,16.75
2023-05-10T02:51:06.171Z,18.10
2023-05-10T02:53:35.257Z,16.83
2023-05-10T02:56:10.214Z,16.90
2023-05-10T02:58:36.731Z,18.90
2023-05-10T03:01:03.484Z,18.58
2023-05-10T03:03:30.110Z,18.08
2023-05-10T03:05:57.502Z,18.33
2023-05-10T03:08:24.788Z,19.15
2023-05-10T03:11:21.891Z,18.05
2023-05-10T03:14:06.921Z,17.85
2023-05-10T03:16:46.512Z,19.50
2023-05-10T03:19:23.457Z,18.30
2023-05-10T03:21:53.506Z,17.55
2023-05-10T03:24:24.278Z,17.70
2023-05-10T03:26:53.765Z,16.80
2023-05-10T03:29:21.509Z,19.08
2023-05-10T03:31:48.020Z,16.90
2023-05-10T03:34:14.684Z,18.77
2023-05-10T03:36:41.141Z,20.25
2023-05-10T03:39:07.513Z,18.85
2023-05-10T03:41:33.898Z,19.85
2023-05-10T03:44:00.539Z,18.20
2023-05-10T03:46:26.994Z,18.63
2023-05-10T03:48:53.386Z,19.77
2023-05-10T03:51:19.806Z,18.98
2023-05-10T03:53:46.262Z,18.58
2023-05-10T03:56:12.658Z,18.47
2023-05-10T03:58:39.078Z,18.17
2023-05-10T04:01:05.782Z,19.55
2023-05-10T04:03:32.583Z,19.35
2023-05-10T04:06:03.290Z,19.40
2023-05-10T04:08:30.051Z,18.80
2023-05-10T04:11:06.689Z,19.58
2023-05-10T04:13:33.284Z,19.08
2023-05-10T04:15:59.709Z,19.23
2023-05-10T04:18:26.129Z,18.55
2023-05-10T04:20:52.579Z,18.83
2023-05-10T04:23:18.969Z,20.90
2023-05-10T04:25:45.718Z,20.15
2023-05-10T04:28:12.092Z,19.98
2023-05-10T04:30:38.623Z,18.55
2023-05-10T04:33:05.217Z,19.97
2023-05-10T04:35:31.649Z,20.45
2023-05-10T04:37:58.104Z,19.25
2023-05-10T04:40:24.595Z,19.45
2023-05-10T04:42:50.968Z,17.05
2023-05-10T04:45:17.900Z,19.40
2023-05-10T04:47:44.395Z,18.92
2023-05-10T04:50:10.962Z,18.33
2023-05-10T04:52:37.477Z,19.05
2023-05-10T04:55:04.064Z,20.80
2023-05-10T04:57:31.435Z,19.53
2023-05-10T05:00:00.871Z,20.92
2023-05-10T05:02:27.593Z,19.73
2023-05-10T05:04:54.154Z,21.38
2023-05-10T05:07:20.625Z,20.85
2023-05-10T05:09:47.006Z,19.43
2023-05-10T05:12:15.225Z,23.02
2023-05-10T05:14:42.199Z,21.38
2023-05-10T05:17:09.132Z,21.50
2023-05-10T05:19:35.703Z,21.00
2023-05-10T05:22:02.647Z,20.67
2023-05-10T05:24:29.101Z,19.98
2023-05-10T05:26:55.712Z,19.48
2023-05-10T05:29:22.264Z,19.40
2023-05-10T05:31:48.711Z,18.48
2023-05-10T05:34:15.454Z,19.10
2023-05-10T05:36:41.997Z,18.60
2023-05-10T05:39:08.816Z,17.85
2023-05-10T05:41:35.323Z,18.65
2023-05-10T05:44:01.783Z,18.70
2023-05-10T05:46:28.337Z,18.63
2023-05-10T05:48:54.872Z,17.90
2023-05-10T05:51:21.487Z,19.05
2023-05-10T05:53:47.963Z,18.83
2023-05-10T05:56:14.470Z,19.75
2023-05-10T05:58:40.999Z,17.80
2023-05-10T06:01:07.684Z,18.05
2023-05-10T06:03:34.584Z,18.15
2023-05-10T06:06:01.502Z,18.40
2023-05-10T06:08:28.059Z,17.83
2023-05-10T06:10:54.560Z,17.47
2023-05-10T06:13:21.157Z,16.15
2023-05-10T06:15:47.719Z,16.23
2023-05-10T06:18:14.241Z,18.63
2023-05-10T06:20:42.323Z,17.92
2023-05-10T06:23:08.798Z,18.80
2023-05-10T06:25:35.339Z,17.73
2023-05-10T06:28:03.141Z,17.55
2023-05-10T06:30:30.352Z,15.30
2023-05-10T06:32:57.670Z,15.55
2023-05-10T06:35:24.568Z,16.23
2023-05-10T06:37:52.055Z,15.27
2023-05-10T06:40:19.263Z,15.43
2023-05-10T06:42:46.604Z,15.63
2023-05-10T06:45:13.780Z,12.35
2023-05-10T06:47:40.257Z,12.97
2023-05-10T06:50:07.915Z,12.32
2023-05-10T06:52:34.337Z,10.90
2023-05-10T06:55:01.362Z,10.02
2023-05-10T06:57:31.655Z,9.98
2023-05-10T06:59:59.816Z,9.50
2023-05-10T07:02:26.576Z,8.05
2023-05-10T07:04:53.531Z,8.77
2023-05-10T07:07:20.164Z,8.50
2023-05-10T07:09:46.714Z,8.38
2023-05-10T07:12:15.289Z,8.23
2023-05-10T07:14:42.289Z,6.72
2023-05-10T07:17:08.801Z,7.32
2023-05-10T07:19:35.262Z,6.47
2023-05-10T07:22:02.020Z,7.68
2023-05-10T07:24:28.457Z,6.50
2023-05-10T07:26:54.874Z,6.78
2023-05-10T07:29:21.258Z,7.20
2023-05-10T07:31:47.716Z,6.65
2023-05-10T07:34:14.139Z,6.15
2023-05-10T07:36:41.470Z,5.77
2023-05-10T07:39:08.494Z,5.88
2023-05-10T07:41:35.858Z,6.85
2023-05-10T07:44:02.557Z,6.85
2023-05-10T07:46:29.548Z,6.65
2023-05-10T07:48:56.190Z,7.80
2023-05-10T07:51:22.934Z,7.80
2023-05-10T07:53:49.576Z,8.55
2023-05-10T07:56:30.525Z,8.82
2023-05-10T07:58:57.631Z,7.72
2023-05-10T08:01:24.345Z,7.37
2023-05-10T08:03:52.053Z,6.93
2023-05-10T08:06:19.617Z,7.35
2023-05-10T08:08:54.519Z,6.65
2023-05-10T08:11:21.579Z,6.25
2023-05-10T08:13:49.451Z,6.80
2023-05-10T08:16:16.529Z,6.43
2023-05-10T08:18:44.232Z,6.25
2023-05-10T08:21:12.523Z,6.13
2023-05-10T08:23:38.991Z,6.97
2023-05-10T08:26:05.550Z,6.73
2023-05-10T08:28:32.077Z,6.95
2023-05-10T08:30:58.514Z,6.60
2023-05-10T08:33:25.239Z,7.43
2023-05-10T08:35:51.775Z,7.07
2023-05-10T08:38:18.933Z,7.43
2023-05-10T08:40:46.610Z,6.38
2023-05-10T08:43:15.711Z,6.43
2023-05-10T08:45:48.666Z,6.45
2023-05-10T08:48:15.677Z,6.68
2023-05-10T08:50:43.831Z,6.57
2023-05-10T08:53:12.467Z,6.28
2023-05-10T08:55:40.003Z,7.13
2023-05-10T08:58:07.292Z,6.88
2023-05-10T09:00:34.571Z,6.40
2023-05-10T09:03:02.183Z,6.17
2023-05-10T09:05:29.139Z,5.88
2023-05-10T09:07:55.588Z,7.03
2023-05-10T09:10:23.701Z,6.15
2023-05-10T09:12:50.794Z,5.65
2023-05-10T09:15:20.238Z,5.83
2023-05-10T09:17:48.123Z,6.15
2023-05-10T09:20:14.705Z,5.32
2023-05-10T09:22:41.495Z,4.97
2023-05-10T09:25:13.476Z,5.03
2023-05-10T09:27:46.347Z,5.07
2023-05-10T09:30:18.967Z,4.35
2023-05-10T09:32:47.569Z,3.47
2023-05-10T09:35:17.053Z,3.13
2023-05-10T09:37:46.891Z,3.83
2023-05-10T09:40:16.132Z,2.80
2023-05-10T09:42:44.320Z,3.38
2023-05-10T09:45:10.963Z,2.00
2023-05-10T09:47:38.155Z,1.65
2023-05-10T09:50:05.625Z,2.05
2023-05-10T09:52:52.301Z,1.90
2023-05-10T09:55:21.596Z,2.15
2023-05-10T09:57:49.352Z,1.30
2023-05-10T10:00:21.199Z,1.15
2023-05-10T10:02:54.869Z,2.20
2023-05-10T10:05:21.594Z,1.63
2023-05-10T10:07:50.211Z,1.83
2023-05-10T10:10:16.844Z,1.98
2023-05-10T10:12:43.532Z,2.67
2023-05-10T10:15:10.655Z,2.22
2023-05-10T10:17:39.735Z,2.40
2023-05-10T10:20:08.674Z,2.50
2023-05-10T10:22:37.754Z,2.90
2023-05-10T10:25:05.915Z,3.38
2023-05-10T10:27:40.583Z,2.50
2023-05-10T10:30:29.141Z,2.87
2023-05-10T10:33:28.855Z,3.47
2023-05-10T10:35:58.815Z,2.60
2023-05-10T10:38:25.511Z,3.08
2023-05-10T10:41:10.584Z,3.28
2023-05-10T10:43:36.971Z,3.13
2023-05-10T10:46:16.925Z,3.00
2023-05-10T10:48:52.485Z,3.30
2023-05-10T10:51:19.122Z,3.00
2023-05-10T10:53:48.512Z,3.63
2023-05-10T10:56:16.215Z,2.80
2023-05-10T10:58:52.226Z,3.90
2023-05-10T11:01:20.596Z,3.42
2023-05-10T11:03:59.504Z,3.65
2023-05-10T11:06:37.073Z,3.15
2023-05-10T11:09:09.038Z,3.20
2023-05-10T11:11:36.670Z,2.55
2023-05-10T11:14:07.919Z,2.67
2023-05-10T11:16:44.928Z,2.65
2023-05-10T11:19:13.157Z,3.20
2023-05-10T11:21:48.816Z,2.83
2023-05-10T11:24:20.867Z,2.85
2023-05-10T11:26:50.731Z,3.15
2023-05-10T11:29:17.309Z,2.67
2023-05-10T11:31:47.955Z,2.97
2023-05-10T11:34:36.193Z,2.63
2023-05-10T11:37:03.253Z,3.15
2023-05-10T11:39:31.485Z,3.28
2023-05-10T11:41:59.248Z,2.75
2023-05-10T11:44:31.990Z,2.90
2023-05-10T11:47:03.784Z,2.67
2023-05-10T11:49:31.045Z,2.53
2023-05-10T11:52:08.112Z,2.70
2023-05-10T11:54:36.116Z,2.22
2023-05-10T11:57:02.775Z,2.50
2023-05-10T12:00:04.463Z,2.70
2023-05-10T12:02:31.479Z,2.08
2023-05-10T12:04:58.460Z,2.55
2023-05-10T12:07:27.274Z,2.08
2023-05-10T12:10:07.465Z,2.40
2023-05-10T12:12:48.311Z,1.83
2023-05-10T12:15:19.361Z,2.00
2023-05-10T12:17:46.976Z,1.48
2023-05-10T12:20:28.309Z,1.67
2023-05-10T12:22:59.670Z,1.95
2023-05-10T12:25:31.975Z,1.53
2023-05-10T12:28:01.789Z,2.45
2023-05-10T12:30:30.351Z,1.85
2023-05-10T12:33:09.252Z,1.50
2023-05-10T12:35:48.833Z,1.38
2023-05-10T12:38:34.346Z,1.03
2023-05-10T12:41:05.145Z,1.50
2023-05-10T12:43:31.928Z,1.45
2023-05-10T12:45:58.726Z,1.60
2023-05-10T12:48:25.900Z,1.70
2023-05-10T12:50:52.380Z,1.57
2023-05-10T12:53:18.890Z,1.40
2023-05-10T12:55:45.694Z,1.58
2023-05-10T12:58:15.818Z,1.40
2023-05-10T13:00:47.639Z,1.48
2023-05-10T13:03:14.154Z,1.00
2023-05-10T13:05:40.709Z,1.00
2023-05-10T13:08:07.088Z,1.08
2023-05-10T13:10:33.487Z,0.80
2023-05-10T13:13:00.386Z,0.93
2023-05-10T13:15:27.280Z,0.70
2023-05-10T13:17:54.745Z,0.63
2023-05-10T13:20:21.663Z,0.85
2023-05-10T13:22:48.845Z,0.85
2023-05-10T13:25:16.468Z,0.55
2023-05-10T13:27:42.841Z,0.90
2023-05-10T13:30:10.422Z,1.00
2023-05-10T13:32:37.054Z,2.70
2023-05-10T13:35:07.078Z,2.90
2023-05-10T13:37:36.387Z,3.60
2023-05-10T13:40:02.836Z,3.80
2023-05-10T13:42:29.374Z,3.35
2023-05-10T13:44:55.777Z,3.55
2023-05-10T13:47:23.293Z,3.22
2023-05-10T13:49:49.768Z,3.85
2023-05-10T13:52:16.193Z,2.87
2023-05-10T13:54:42.606Z,3.70
2023-05-10T13:57:09.194Z,3.35
2023-05-10T13:59:35.699Z,3.53
2023-05-10T14:02:05.119Z,4.43
2023-05-10T14:04:32.498Z,3.63
2023-05-10T14:06:59.008Z,3.65
2023-05-10T14:09:25.333Z,3.28
2023-05-10T14:11:52.073Z,4.07
2023-05-10T14:14:18.436Z,3.70
2023-05-10T14:16:45.652Z,3.17
2023-05-10T14:19:12.352Z,3.47
2023-05-10T14:21:39.321Z,3.30
2023-05-10T14:24:07.586Z,3.53
2023-05-10T14:26:35.261Z,3.50
2023-05-10T14:29:01.682Z,3.30
2023-05-10T14:31:28.227Z,3.45
2023-05-10T14:33:54.741Z,3.72
2023-05-10T14:36:21.263Z,3.35
2023-05-10T14:38:47.661Z,3.50
2023-05-10T14:41:16.008Z,3.73
2023-05-10T14:43:42.471Z,3.70
2023-05-10T14:46:09.576Z,3.50
2023-05-10T14:48:36.252Z,3.63
2023-05-10T14:51:03.081Z,4.72
2023-05-10T14:53:29.534Z,3.93
2023-05-10T14:55:55.932Z,3.25
2023-05-10T14:58:22.351Z,4.10
2023-05-10T15:00:48.724Z,3.72
2023-05-10T15:03:15.479Z,3.60
2023-05-10T15:05:42.491Z,3.90
2023-05-10T15:08:10.186Z,4.13
2023-05-10T15:10:37.683Z,4.40
2023-05-10T15:13:04.982Z,4.88
2023-05-10T15:15:31.762Z,3.90
2023-05-10T15:17:58.345Z,4.70
2023-05-10T15:20:24.739Z,4.65
2023-05-10T15:22:51.183Z,4.25
2023-05-10T15:25:18.238Z,4.07
2023-05-10T15:27:44.830Z,4.72
2023-05-10T15:30:11.841Z,4.77
2023-05-10T15:32:40.280Z,4.90
2023-05-10T15:35:08.572Z,4.32
2023-05-10T15:37:34.939Z,4.70
2023-05-10T15:40:04.916Z,4.55
2023-05-10T15:42:32.766Z,5.50
2023-05-10T15:44:59.594Z,4.28
2023-05-10T15:47:26.990Z,4.07
2023-05-10T15:49:53.443Z,4.50
2023-05-10T15:52:21.052Z,4.57
2023-05-10T15:54:47.549Z,4.30
2023-05-10T15:57:14.132Z,4.30
2023-05-10T15:59:40.566Z,4.57
2023-05-10T16:02:08.743Z,4.75
2023-05-10T16:04:35.186Z,5.03
2023-05-10T16:07:01.603Z,3.90
2023-05-10T16:09:28.200Z,4.05
2023-05-10T16:11:54.949Z,4.18
2023-05-10T16:14:22.987Z,3.85
2023-05-10T16:16:49.621Z,4.25
2023-05-10T16:19:16.240Z,3.80
2023-05-10T16:21:42.785Z,4.15
2023-05-10T16:24:09.360Z,3.95
2023-05-10T16:26:40.932Z,4.18
2023-05-10T16:29:10.758Z,3.35
2023-05-10T16:31:37.299Z,4.10
2023-05-10T16:34:03.849Z,3.22
2023-05-10T16:36:31.348Z,3.53
2023-05-10T16:38:58.330Z,3.33
2023-05-10T16:41:24.834Z,4.00
2023-05-10T16:43:51.438Z,3.57
2023-05-10T16:46:17.961Z,3.83
2023-05-10T16:48:44.326Z,3.40
2023-05-10T16:51:11.067Z,3.67
2023-05-10T16:53:37.813Z,3.33
2023-05-10T16:56:04.293Z,3.20
2023-05-10T16:58:30.981Z,2.67
2023-05-10T17:00:57.367Z,3.20
2023-05-10T17:03:23.841Z,3.10
2023-05-10T17:05:50.432Z,3.03
2023-05-10T17:08:16.991Z,2.83
2023-05-10T17:10:43.398Z,2.70
2023-05-10T17:13:10.700Z,2.90
2023-05-10T17:15:38.162Z,2.28
2023-05-10T17:18:07.949Z,2.65
2023-05-10T17:20:34.563Z,2.40
2023-05-10T17:23:02.636Z,2.33
2023-05-10T17:25:29.415Z,2.80
2023-05-10T17:27:55.842Z,2.10
2023-05-10T17:30:26.270Z,2.03
2023-05-10T17:32:54.271Z,2.40
2023-05-10T17:35:21.287Z,2.83
2023-05-10T17:37:47.734Z,1.90
2023-05-10T17:40:14.377Z,3.38
2023-05-10T17:42:40.906Z,5.60
2023-05-10T17:45:07.975Z,4.50
2023-05-10T17:47:34.411Z,4.95
2023-05-10T17:50:00.841Z,4.63
2023-05-10T17:52:29.339Z,4.88
2023-05-10T17:54:56.738Z,5.05
2023-05-10T17:57:23.756Z,3.97
2023-05-10T17:59:50.579Z,4.32
2023-05-10T18:02:17.089Z,4.55
2023-05-10T18:04:43.793Z,4.68
2023-05-10T18:07:10.230Z,4.95
2023-05-10T18:09:36.671Z,5.33
2023-05-10T18:12:03.327Z,4.80
2023-05-10T18:14:40.022Z,4.35
2023-05-10T18:17:06.905Z,3.80
2023-05-10T18:19:33.471Z,4.43
2023-05-10T18:21:59.845Z,3.53
2023-05-10T18:24:37.630Z,3.58
2023-05-10T18:27:06.642Z,3.67
2023-05-10T18:29:33.063Z,4.15
2023-05-10T18:31:59.446Z,4.00
2023-05-10T18:34:25.858Z,4.57
2023-05-10T18:36:52.457Z,3.90
2023-05-10T18:39:18.930Z,3.80
2023-05-10T18:41:45.763Z,3.80
2023-05-10T18:44:12.166Z,3.95
2023-05-10T18:46:38.830Z,3.30
2023-05-10T18:49:06.533Z,4.30
2023-05-10T18:51:33.024Z,4.00
2023-05-10T18:53:59.435Z,4.47
2023-05-10T18:56:25.854Z,4.07
2023-05-10T18:58:52.632Z,3.77
2023-05-10T19:01:19.095Z,4.88
2023-05-10T19:03:45.550Z,5.55
2023-05-10T19:06:12.000Z,5.35
2023-05-10T19:08:38.434Z,4.30
2023-05-10T19:11:04.831Z,3.87
2023-05-10T19:13:31.369Z,4.70
2023-05-10T19:16:15.853Z,4.40
2023-05-10T19:18:44.798Z,4.70
2023-05-10T19:21:11.414Z,5.28
2023-05-10T19:23:40.294Z,5.30
2023-05-10T19:26:06.929Z,5.35
2023-05-10T19:28:34.225Z,5.05
2023-05-10T19:31:01.822Z,5.72
2023-05-10T19:33:28.726Z,5.88
2023-05-10T19:35:55.933Z,6.03
2023-05-10T19:38:23.061Z,5.20
2023-05-10T19:40:57.966Z,5.25
2023-05-10T19:43:28.869Z,5.07
2023-05-10T19:45:59.216Z,5.13
2023-05-10T19:48:26.046Z,4.77
2023-05-10T19:50:53.660Z,5.10
2023-05-10T19:53:20.249Z,5.28
2023-05-10T19:55:46.610Z,5.60
2023-05-10T19:58:13.269Z,5.20
2023-05-10T20:00:39.669Z,5.30
2023-05-10T20:03:09.019Z,4.85
2023-05-10T20:05:35.781Z,5.75
2023-05-10T20:08:02.207Z,6.05
2023-05-10T20:10:28.597Z,4.88
2023-05-10T20:12:55.001Z,5.00
2023-05-10T20:15:22.929Z,5.00
2023-05-10T20:17:51.948Z,4.50
2023-05-10T20:20:20.097Z,5.13
2023-05-10T20:22:50.543Z,4.30
2023-05-10T20:25:18.416Z,5.07
2023-05-10T20:27:44.952Z,5.93
2023-05-10T20:30:11.779Z,7.95
2023-05-10T20:32:38.632Z,7.65
2023-05-10T20:35:05.930Z,7.75
2023-05-10T20:37:32.945Z,6.83
2023-05-10T20:39:59.426Z,6.05
2023-05-10T20:42:25.935Z,6.65
2023-05-10T20:44:52.396Z,5.68
2023-05-10T20:47:18.947Z,6.40
2023-05-10T20:49:45.605Z,6.07
2023-05-10T20:52:12.037Z,5.88
2023-05-10T20:54:38.424Z,6.18
2023-05-10T20:57:04.933Z,5.75
2023-05-10T20:59:31.435Z,5.55
2023-05-10T21:01:58.198Z,5.33
2023-05-10T21:04:25.758Z,5.50
2023-05-10T21:06:53.008Z,6.25
2023-05-10T21:09:19.426Z,6.90
2023-05-10T21:11:45.851Z,6.65
2023-05-10T21:14:12.253Z,6.07
2023-05-10T21:16:38.941Z,6.45
2023-05-10T21:19:07.076Z,6.38
2023-05-10T21:21:33.766Z,6.63
2023-05-10T21:24:00.170Z,6.35
2023-05-10T21:26:26.570Z,6.43
2023-05-10T21:28:52.976Z,6.20
2023-05-10T21:31:19.395Z,6.43
2023-05-10T21:33:45.963Z,6.70
2023-05-10T21:36:12.997Z,6.32
2023-05-10T21:38:39.483Z,7.20
2023-05-10T21:41:08.662Z,6.93
2023-05-10T21:43:35.170Z,6.72
2023-05-10T21:46:01.619Z,6.60
2023-05-10T21:48:28.144Z,6.25
2023-05-10T21:50:54.564Z,6.23
2023-05-10T21:53:21.003Z,6.30
2023-05-10T21:55:48.137Z,6.13
2023-05-10T21:58:14.681Z,5.85
2023-05-10T22:00:41.113Z,6.22
2023-05-10T22:03:07.681Z,7.00
2023-05-10T22:05:34.303Z,7.10
2023-05-10T22:08:00.971Z,7.22
2023-05-10T22:10:27.383Z,7.25
2023-05-10T22:12:53.880Z,7.63
2023-05-10T22:15:20.252Z,7.83
2023-05-10T22:17:46.693Z,7.32
2023-05-10T22:20:13.298Z,7.72
2023-05-10T22:22:39.722Z,8.25
2023-05-10T22:25:07.378Z,8.70
2023-05-10T22:27:34.065Z,10.10
2023-05-10T22:30:00.437Z,9.82
2023-05-10T22:32:26.996Z,9.32
2023-05-10T22:34:54.616Z,8.75
2023-05-10T22:37:21.139Z,8.13
2023-05-10T22:39:48.710Z,7.00
2023-05-10T22:42:15.319Z,9.55
2023-05-10T22:44:42.714Z,8.73
2023-05-10T22:47:09.204Z,8.75
2023-05-10T22:49:35.737Z,9.43
2023-05-10T22:52:02.316Z,8.47
2023-05-10T22:54:28.755Z,7.90
2023-05-10T22:56:56.431Z,9.05
2023-05-10T22:59:23.335Z,7.65
2023-05-10T23:01:49.994Z,7.95
2023-05-10T23:04:16.470Z,7.60
2023-05-10T23:06:42.929Z,8.55
2023-05-10T23:09:09.786Z,7.40
2023-05-10T23:11:36.503Z,8.05
2023-05-10T23:14:03.232Z,7.00
2023-05-10T23:16:29.763Z,7.50
2023-05-10T23:18:56.297Z,6.50
2023-05-10T23:21:22.817Z,5.97
2023-05-10T23:23:49.334Z,6.35
2023-05-10T23:26:16.290Z,5.93
2023-05-10T23:28:42.670Z,5.50
2023-05-10T23:31:09.136Z,6.35
2023-05-10T23:33:35.589Z,5.75
2023-05-10T23:36:01.981Z,5.72
2023-05-10T23:38:28.386Z,6.25
2023-05-10T23:40:54.957Z,5.70
2023-05-10T23:43:21.854Z,5.40
2023-05-10T23:45:58.125Z,6.18
2023-05-10T23:48:24.703Z,5.95
2023-05-10T23:50:51.244Z,6.60
2023-05-10T23:53:17.700Z,5.97
2023-05-10T23:55:45.033Z,6.55
2023-05-10T23:58:11.812Z,7.15
